createdAt,value
2019-05-01T00:01:00.121Z,75.49
2019-05-01T00:03:40.082Z,75.39
2019-05-01T00:06:09.487Z,76.08
2019-05-01T00:08:38.335Z,76.50
2019-05-01T00:11:07.511Z,77.49
2019-05-01T00:13:36.317Z,77.17
2019-05-01T00:16:05.551Z,76.69
2019-05-01T00:18:34.355Z,77.06
2019-05-01T00:21:03.091Z,77.66
2019-05-01T00:23:31.906Z,76.27
2019-05-01T00:26:00.801Z,77.09
2019-05-01T00:28:29.696Z,76.39
2019-05-01T00:30:58.682Z,77.06
2019-05-01T00:33:27.861Z,77.20
2019-05-01T00:35:56.745Z,76.93
2019-05-01T00:38:25.604Z,76.44
2019-05-01T00:40:54.457Z,78.04
2019-05-01T00:43:23.607Z,77.24
2019-05-01T00:45:52.494Z,78.77
2019-05-01T00:48:21.513Z,78.35
2019-05-01T00:50:50.510Z,79.07
2019-05-01T00:53:19.415Z,79.42
2019-05-01T00:56:06.265Z,79.44
2019-05-01T00:58:50.011Z,78.79
2019-05-01T01:01:40.625Z,79.72
2019-05-01T01:04:11.492Z,80.01
2019-05-01T01:06:40.473Z,80.09
2019-05-01T01:09:12.032Z,79.98
2019-05-01T01:11:40.735Z,79.84
2019-05-01T01:14:09.873Z,80.21
2019-05-01T01:16:38.671Z,79.95
2019-05-01T01:19:07.490Z,79.83
2019-05-01T01:21:36.485Z,79.15
2019-05-01T01:24:05.477Z,79.46
2019-05-01T01:26:34.961Z,80.40
2019-05-01T01:29:03.994Z,80.16
2019-05-01T01:31:32.876Z,79.47
2019-05-01T01:34:01.957Z,79.88
2019-05-01T01:36:30.952Z,79.73
2019-05-01T01:39:01.253Z,80.69
2019-05-01T01:41:30.048Z,80.42
2019-05-01T01:44:16.224Z,81.01
2019-05-01T01:46:45.461Z,80.85
2019-05-01T01:49:14.566Z,81.80
2019-05-01T01:51:43.719Z,81.64
2019-05-01T01:54:12.781Z,82.44
2019-05-01T01:56:41.668Z,81.90
2019-05-01T01:59:10.770Z,82.39
2019-05-01T02:02:02.144Z,81.67
2019-05-01T02:04:47.726Z,82.18
2019-05-01T02:07:16.975Z,82.78
2019-05-01T02:09:45.867Z,83.26
2019-05-01T02:12:14.702Z,82.99
2019-05-01T02:14:43.540Z,83.06
2019-05-01T02:17:12.380Z,82.78
2019-05-01T02:19:41.203Z,83.41
2019-05-01T02:22:10.392Z,82.97
2019-05-01T02:24:39.200Z,82.54
2019-05-01T02:27:12.672Z,83.07
2019-05-01T02:29:46.908Z,83.68
2019-05-01T02:32:16.033Z,83.98
2019-05-01T02:34:45.323Z,84.10
2019-05-01T02:37:15.986Z,83.64
2019-05-01T02:39:44.848Z,83.95
2019-05-01T02:42:15.031Z,83.79
2019-05-01T02:44:48.083Z,83.81
2019-05-01T02:47:22.217Z,83.49
2019-05-01T02:49:58.832Z,84.23
2019-05-01T02:52:30.954Z,83.96
2019-05-01T02:55:03.463Z,84.54
2019-05-01T02:57:32.551Z,84.16
2019-05-01T03:00:01.677Z,84.27
2019-05-01T03:02:31.362Z,84.46
2019-05-01T03:05:00.985Z,84.32
2019-05-01T03:07:33.029Z,83.93
2019-05-01T03:10:02.336Z,84.17
2019-05-01T03:12:31.725Z,84.14
2019-05-01T03:15:02.783Z,83.71
2019-05-01T03:17:53.264Z,83.89
2019-05-01T03:20:47.264Z,83.41
2019-05-01T03:23:23.322Z,83.98
2019-05-01T03:25:52.291Z,83.89
2019-05-01T03:28:21.372Z,83.79
2019-05-01T03:30:51.440Z,84.20
2019-05-01T03:33:20.510Z,84.30
2019-05-01T03:35:49.589Z,84.07
2019-05-01T03:38:18.829Z,83.84
2019-05-01T03:40:48.126Z,84.54
2019-05-01T03:43:16.989Z,84.41
2019-05-01T03:45:46.635Z,85.06
2019-05-01T03:48:15.516Z,85.04
2019-05-01T03:50:46.960Z,85.14
2019-05-01T03:53:16.320Z,85.30
2019-05-01T03:55:45.487Z,85.25
2019-05-01T03:58:14.619Z,85.10
2019-05-01T04:00:51.934Z,84.81
2019-05-01T04:03:25.409Z,85.36
2019-05-01T04:05:54.751Z,85.95
2019-05-01T04:08:25.374Z,85.71
2019-05-01T04:10:55.189Z,85.33
2019-05-01T04:13:24.452Z,84.99
2019-05-01T04:15:54.144Z,85.31
2019-05-01T04:18:23.248Z,85.11
2019-05-01T04:20:52.091Z,85.36
2019-05-01T04:23:21.375Z,85.87
2019-05-01T04:25:50.871Z,85.60
2019-05-01T04:28:47.691Z,85.39
2019-05-01T04:31:41.390Z,85.50
2019-05-01T04:34:18.942Z,85.54
2019-05-01T04:36:50.808Z,85.82
2019-05-01T04:39:19.821Z,85.68
2019-05-01T04:41:49.991Z,85.13
2019-05-01T04:44:19.045Z,85.20
2019-05-01T04:46:47.973Z,85.01
2019-05-01T04:49:18.136Z,84.39
2019-05-01T04:51:48.693Z,84.82
2019-05-01T04:54:17.577Z,83.88
2019-05-01T04:56:47.071Z,84.68
2019-05-01T04:59:16.334Z,84.94
2019-05-01T05:02:00.261Z,84.91
2019-05-01T05:04:30.168Z,84.57
2019-05-01T05:06:59.346Z,84.98
2019-05-01T05:09:42.999Z,85.34
2019-05-01T05:12:36.443Z,84.29
2019-05-01T05:15:25.882Z,84.28
2019-05-01T05:17:54.708Z,84.29
2019-05-01T05:20:23.594Z,83.62
2019-05-01T05:22:52.449Z,82.43
2019-05-01T05:25:21.550Z,82.46
2019-05-01T05:27:50.777Z,82.03
2019-05-01T05:30:19.941Z,81.36
2019-05-01T05:32:49.725Z,81.22
2019-05-01T05:35:20.280Z,80.62
2019-05-01T05:38:08.905Z,80.90
2019-05-01T05:40:37.883Z,79.94
2019-05-01T05:43:06.796Z,79.37
2019-05-01T05:45:36.047Z,78.56
2019-05-01T05:48:05.021Z,77.60
2019-05-01T05:50:39.709Z,76.59
2019-05-01T05:53:10.627Z,77.28
2019-05-01T05:55:44.024Z,76.60
2019-05-01T06:01:29.392Z,74.50
2019-05-01T06:04:22.919Z,74.36
2019-05-01T06:07:05.402Z,72.93
2019-05-01T06:09:57.272Z,70.03
2019-05-01T06:12:37.311Z,70.40
2019-05-01T06:15:23.998Z,69.58
2019-05-01T06:18:05.883Z,70.30
2019-05-01T06:26:37.226Z,68.32
2019-05-01T06:29:08.071Z,66.67
2019-05-01T06:31:39.799Z,63.74
2019-05-01T06:39:33.474Z,54.63
2019-05-01T06:42:04.273Z,53.79
2019-05-01T06:44:44.053Z,52.24
2019-05-01T06:47:43.131Z,50.83
2019-05-01T06:50:18.145Z,48.74
2019-05-01T06:52:47.212Z,50.01
2019-05-01T06:55:16.023Z,49.58
2019-05-01T06:57:45.642Z,50.42
2019-05-01T07:00:17.777Z,54.07
2019-05-01T07:02:47.998Z,50.46
2019-05-01T07:05:16.917Z,49.19
2019-05-01T07:07:48.147Z,48.55
2019-05-01T07:10:29.484Z,49.78
2019-05-01T07:12:48.038Z,50.19
2019-05-01T07:15:17.398Z,46.67
2019-05-01T07:17:47.824Z,46.15
2019-05-01T07:20:25.596Z,47.44
2019-05-01T07:22:54.918Z,47.12
2019-05-01T07:25:23.975Z,47.30
2019-05-01T07:27:53.860Z,43.49
2019-05-01T07:30:42.764Z,44.61
2019-05-01T07:33:16.505Z,44.11
2019-05-01T07:35:43.299Z,43.40
2019-05-01T07:38:12.174Z,43.17
2019-05-01T07:40:41.427Z,43.99
2019-05-01T07:43:24.018Z,44.75
2019-05-01T07:46:13.827Z,43.55
2019-05-01T07:48:44.248Z,43.58
2019-05-01T07:51:14.099Z,44.22
2019-05-01T07:53:43.348Z,43.84
2019-05-01T07:56:12.377Z,46.57
2019-05-01T07:58:41.896Z,46.17
2019-05-01T08:01:20.163Z,45.57
2019-05-01T08:03:49.026Z,43.28
2019-05-01T08:06:21.784Z,46.21
2019-05-01T08:08:48.896Z,43.84
2019-05-01T08:11:18.105Z,47.77
2019-05-01T08:13:47.578Z,49.94
2019-05-01T08:16:17.265Z,44.59
2019-05-01T08:18:51.217Z,45.86
2019-05-01T08:21:38.568Z,47.36
2019-05-01T08:24:08.786Z,47.41
2019-05-01T08:26:39.621Z,44.74
2019-05-01T08:29:30.461Z,46.46
2019-05-01T08:32:21.370Z,47.42
2019-05-01T08:34:50.449Z,47.34
2019-05-01T08:37:24.674Z,48.21
2019-05-01T08:39:54.149Z,48.91
2019-05-01T08:42:22.883Z,46.82
2019-05-01T08:45:15.464Z,48.14
2019-05-01T08:47:46.137Z,46.89
2019-05-01T08:50:19.916Z,48.98
2019-05-01T08:52:51.261Z,45.90
2019-05-01T08:55:20.292Z,46.69
2019-05-01T08:57:49.488Z,50.20
2019-05-01T09:00:18.564Z,47.63
2019-05-01T09:02:47.558Z,47.53
2019-05-01T09:05:28.120Z,46.69
2019-05-01T09:07:51.325Z,48.20
2019-05-01T09:10:21.710Z,45.96
2019-05-01T09:12:51.783Z,45.55
2019-05-01T09:15:21.089Z,48.44
2019-05-01T09:17:50.168Z,50.28
2019-05-01T09:20:21.182Z,51.75
2019-05-01T09:22:50.475Z,48.58
2019-05-01T09:25:23.896Z,50.41
2019-05-01T09:28:04.144Z,48.63
2019-05-01T09:30:35.343Z,50.54
2019-05-01T09:33:04.289Z,48.69
2019-05-01T09:35:33.161Z,50.04
2019-05-01T09:38:02.043Z,49.01
2019-05-01T09:40:31.234Z,48.10
2019-05-01T09:43:03.434Z,51.43
2019-05-01T09:45:32.291Z,52.18
2019-05-01T09:48:01.215Z,51.79
2019-05-01T09:50:31.767Z,53.67
2019-05-01T09:53:11.202Z,51.63
2019-05-01T09:55:47.111Z,58.17
2019-05-01T09:58:19.461Z,52.28
2019-05-01T10:00:52.587Z,54.49
2019-05-01T10:03:19.767Z,53.14
2019-05-01T10:05:49.032Z,54.11
2019-05-01T10:08:18.308Z,54.48
2019-05-01T10:10:47.756Z,53.57
2019-05-01T10:13:17.684Z,51.61
2019-05-01T10:15:47.234Z,52.82
2019-05-01T10:18:16.235Z,52.75
2019-05-01T10:21:03.630Z,55.11
2019-05-01T10:23:34.756Z,55.88
2019-05-01T10:26:06.346Z,54.35
2019-05-01T10:28:50.029Z,52.71
2019-05-01T10:31:23.424Z,52.38
2019-05-01T10:33:55.452Z,55.57
2019-05-01T10:36:33.889Z,54.07
2019-05-01T10:39:03.587Z,56.47
2019-05-01T10:41:32.512Z,56.73
2019-05-01T10:44:01.264Z,58.51
2019-05-01T10:46:30.446Z,57.52
2019-05-01T10:48:59.360Z,56.46
2019-05-01T10:51:30.822Z,54.93
2019-05-01T10:53:59.821Z,55.58
2019-05-01T10:56:29.121Z,57.35
2019-05-01T10:58:57.970Z,54.15
2019-05-01T11:01:45.965Z,54.47
2019-05-01T11:04:15.129Z,57.91
2019-05-01T11:06:44.151Z,54.54
2019-05-01T11:09:14.152Z,54.60
2019-05-01T11:11:43.123Z,55.33
2019-05-01T11:14:12.051Z,53.93
2019-05-01T11:16:40.975Z,55.51
2019-05-01T11:19:09.846Z,55.39
2019-05-01T11:21:38.814Z,54.12
2019-05-01T11:24:07.746Z,53.18
2019-05-01T11:26:36.900Z,53.81
2019-05-01T11:29:09.087Z,53.85
2019-05-01T11:31:45.828Z,55.08
2019-05-01T11:34:52.123Z,53.19
2019-05-01T11:37:42.286Z,55.59
2019-05-01T11:40:16.352Z,55.36
2019-05-01T11:42:45.330Z,55.48
2019-05-01T11:45:14.249Z,54.03
2019-05-01T11:47:43.222Z,54.24
2019-05-01T11:50:12.242Z,55.20
2019-05-01T11:52:41.042Z,57.91
2019-05-01T11:55:10.088Z,58.23
2019-05-01T11:57:39.076Z,55.30
2019-05-01T12:00:10.208Z,55.71
2019-05-01T12:02:39.140Z,58.53
2019-05-01T12:05:08.010Z,55.17
2019-05-01T12:07:37.923Z,58.04
2019-05-01T12:12:52.782Z,56.17
2019-05-01T12:15:21.720Z,55.55
2019-05-01T12:17:52.797Z,58.60
2019-05-01T12:20:22.749Z,56.71
2019-05-01T12:22:52.049Z,56.25
2019-05-01T12:25:21.028Z,55.55
2019-05-01T12:27:50.222Z,54.56
2019-05-01T12:30:19.184Z,52.94
2019-05-01T12:32:48.175Z,54.39
2019-05-01T12:35:17.072Z,51.53
2019-05-01T12:37:45.960Z,52.54
2019-05-01T12:40:17.388Z,56.11
2019-05-01T12:42:46.314Z,53.69
2019-05-01T12:45:15.773Z,50.21
2019-05-01T12:47:53.165Z,49.08
2019-05-01T12:50:22.218Z,49.90
2019-05-01T12:53:10.034Z,47.10
2019-05-01T12:55:51.345Z,49.21
2019-05-01T12:58:21.242Z,50.46
2019-05-01T13:00:52.428Z,53.26
2019-05-01T13:03:21.578Z,53.48
2019-05-01T13:05:50.475Z,53.25
2019-05-01T13:08:19.408Z,49.98
2019-05-01T13:10:48.937Z,50.45
2019-05-01T13:13:17.969Z,48.16
2019-05-01T13:15:46.895Z,48.28
2019-05-01T13:18:15.877Z,51.03
2019-05-01T13:20:44.880Z,49.50
2019-05-01T13:23:13.738Z,48.24
2019-05-01T13:25:43.075Z,47.36
2019-05-01T13:28:42.839Z,46.75
2019-05-01T13:31:34.990Z,48.54
2019-05-01T13:34:04.245Z,48.35
2019-05-01T13:36:33.162Z,49.38
2019-05-01T13:39:02.234Z,50.21
2019-05-01T13:41:31.066Z,50.82
2019-05-01T13:43:59.881Z,46.15
2019-05-01T13:46:28.666Z,48.39
2019-05-01T13:48:57.500Z,46.25
2019-05-01T13:51:26.313Z,46.67
2019-05-01T13:53:56.328Z,45.63
2019-05-01T13:56:25.151Z,49.33
2019-05-01T13:58:53.867Z,48.62
2019-05-01T14:01:23.136Z,50.54
2019-05-01T14:03:51.995Z,48.43
2019-05-01T14:06:20.986Z,48.39
2019-05-01T14:08:49.944Z,48.57
2019-05-01T14:11:18.770Z,50.89
2019-05-01T14:13:47.967Z,52.51
2019-05-01T14:16:16.824Z,53.86
2019-05-01T14:18:45.894Z,52.49
2019-05-01T14:21:22.398Z,53.13
2019-05-01T14:24:10.996Z,49.53
2019-05-01T14:26:39.856Z,49.94
2019-05-01T14:29:08.681Z,48.46
2019-05-01T14:31:37.637Z,49.83
2019-05-01T14:34:07.569Z,50.93
2019-05-01T14:36:36.808Z,52.40
2019-05-01T14:39:09.243Z,51.73
2019-05-01T14:41:38.264Z,47.33
2019-05-01T14:44:08.333Z,45.29
2019-05-01T14:46:37.259Z,43.56
2019-05-01T14:49:06.427Z,47.07
2019-05-01T14:51:35.447Z,45.89
2019-05-01T14:54:05.586Z,46.28
2019-05-01T14:56:34.513Z,45.50
2019-05-01T14:59:03.714Z,47.49
2019-05-01T15:01:32.545Z,47.37
2019-05-01T15:04:01.552Z,47.51
2019-05-01T15:06:30.508Z,46.95
2019-05-01T15:08:59.717Z,50.19
2019-05-01T15:11:28.572Z,47.92
2019-05-01T15:14:20.014Z,48.41
2019-05-01T15:16:56.410Z,49.07
2019-05-01T15:19:27.610Z,46.33
2019-05-01T15:21:56.744Z,46.25
2019-05-01T15:24:28.813Z,46.86
2019-05-01T15:26:57.730Z,45.81
2019-05-01T15:29:26.607Z,50.80
2019-05-01T15:31:55.790Z,46.45
2019-05-01T15:34:24.614Z,48.88
2019-05-01T15:36:53.832Z,49.20
2019-05-01T15:39:44.577Z,48.85
2019-05-01T15:42:34.259Z,49.54
2019-05-01T15:45:03.275Z,48.23
2019-05-01T15:47:41.100Z,50.58
2019-05-01T15:50:10.040Z,49.29
2019-05-01T15:52:38.961Z,51.10
2019-05-01T15:55:11.029Z,51.08
2019-05-01T15:57:40.079Z,50.46
2019-05-01T16:00:09.463Z,52.73
2019-05-01T16:02:38.520Z,48.46
2019-05-01T16:05:07.978Z,53.68
2019-05-01T16:07:36.832Z,47.68
2019-05-01T16:10:10.089Z,47.74
2019-05-01T16:12:44.939Z,48.83
2019-05-01T16:15:33.263Z,51.13
2019-05-01T16:18:02.568Z,49.39
2019-05-01T16:20:31.482Z,46.21
2019-05-01T16:23:00.463Z,47.14
2019-05-01T16:25:29.347Z,45.18
2019-05-01T16:27:59.924Z,46.79
2019-05-01T16:30:28.969Z,46.76
2019-05-01T16:32:57.890Z,46.17
2019-05-01T16:35:26.759Z,47.79
2019-05-01T16:37:58.703Z,48.04
2019-05-01T16:40:39.327Z,46.75
2019-05-01T16:43:10.408Z,47.49
2019-05-01T16:45:43.451Z,47.31
2019-05-01T16:48:13.887Z,54.09
2019-05-01T16:50:42.843Z,55.35
2019-05-01T16:53:16.297Z,48.31
2019-05-01T16:55:45.506Z,46.35
2019-05-01T16:58:15.203Z,48.13
2019-05-01T17:01:06.527Z,54.67
2019-05-01T17:03:42.862Z,56.63
2019-05-01T17:06:19.380Z,49.35
2019-05-01T17:09:20.356Z,47.02
2019-05-01T17:11:49.806Z,52.03
2019-05-01T17:14:18.834Z,50.54
2019-05-01T17:16:47.789Z,48.25
2019-05-01T17:19:17.166Z,48.54
2019-05-01T17:21:46.376Z,47.71
2019-05-01T17:24:15.573Z,47.39
2019-05-01T17:26:50.510Z,47.31
2019-05-01T17:29:19.744Z,50.11
2019-05-01T17:31:51.664Z,48.16
2019-05-01T17:34:25.730Z,49.38
2019-05-01T17:36:55.073Z,47.84
2019-05-01T17:39:28.232Z,56.54
2019-05-01T17:41:57.572Z,61.64
2019-05-01T17:44:27.847Z,61.79
2019-05-01T17:46:56.843Z,61.58
2019-05-01T17:49:25.847Z,58.17
2019-05-01T17:51:54.715Z,56.71
2019-05-01T17:54:24.025Z,58.01
2019-05-01T17:56:55.732Z,58.69
2019-05-01T17:59:23.846Z,60.09
2019-05-01T18:02:11.532Z,58.76
2019-05-01T18:04:51.578Z,58.12
2019-05-01T18:07:21.618Z,56.51
2019-05-01T18:09:51.370Z,57.86
2019-05-01T18:14:56.993Z,56.85
2019-05-01T18:17:26.755Z,57.08
2019-05-01T18:19:57.338Z,57.21
2019-05-01T18:22:48.164Z,58.17
2019-05-01T18:25:33.071Z,58.87
2019-05-01T18:28:31.750Z,57.53
2019-05-01T18:31:00.973Z,57.31
2019-05-01T18:33:29.966Z,56.59
2019-05-01T18:35:59.025Z,62.86
2019-05-01T18:38:36.801Z,59.63
2019-05-01T18:41:28.115Z,59.50
2019-05-01T18:43:57.964Z,61.48
2019-05-01T18:46:27.061Z,61.06
2019-05-01T18:48:57.207Z,66.47
2019-05-01T18:51:26.331Z,67.04
2019-05-01T18:54:01.288Z,65.52
2019-05-01T18:56:30.547Z,63.86
2019-05-01T18:58:59.424Z,66.86
2019-05-01T19:01:28.403Z,66.64
2019-05-01T19:03:57.908Z,67.43
2019-05-01T19:06:40.107Z,69.18
2019-05-01T19:09:14.029Z,70.50
2019-05-01T19:11:36.036Z,70.04
2019-05-01T19:14:05.855Z,73.08
2019-05-01T19:16:34.775Z,73.44
2019-05-01T19:19:06.396Z,73.10
2019-05-01T19:21:41.914Z,72.10
2019-05-01T19:24:16.009Z,72.17
2019-05-01T19:26:45.089Z,74.03
2019-05-01T19:29:17.584Z,73.96
2019-05-01T19:31:46.707Z,76.11
2019-05-01T19:34:15.795Z,75.31
2019-05-01T19:36:45.314Z,74.83
2019-05-01T19:39:16.345Z,75.39
2019-05-01T19:41:49.053Z,75.13
2019-05-01T19:44:18.946Z,75.14
2019-05-01T19:46:47.688Z,76.36
2019-05-01T19:49:24.470Z,76.05
2019-05-01T19:51:55.548Z,75.54
2019-05-01T19:54:27.933Z,77.58
2019-05-01T19:56:54.315Z,77.58
2019-05-01T19:59:23.506Z,77.38
2019-05-01T20:01:52.905Z,77.42
2019-05-01T20:04:22.859Z,77.54
2019-05-01T20:06:53.276Z,76.86
2019-05-01T20:09:25.426Z,76.88
2019-05-01T20:12:01.066Z,77.67
2019-05-01T20:14:30.944Z,77.35
2019-05-01T20:17:00.123Z,77.24
2019-05-01T20:19:30.063Z,78.57
2019-05-01T20:21:59.183Z,78.12
2019-05-01T20:24:28.646Z,79.21
2019-05-01T20:26:58.502Z,79.00
2019-05-01T20:29:28.042Z,78.75
2019-05-01T20:31:59.845Z,78.94
2019-05-01T20:34:29.031Z,79.43
2019-05-01T20:37:00.599Z,79.79
2019-05-01T20:39:30.434Z,81.28
2019-05-01T20:42:00.353Z,81.30
2019-05-01T20:44:29.263Z,82.17
2019-05-01T20:47:02.519Z,81.68
2019-05-01T20:49:29.886Z,81.58
2019-05-01T20:51:58.797Z,82.22
2019-05-01T20:54:27.815Z,82.33
2019-05-01T20:57:03.774Z,82.19
2019-05-01T20:59:35.262Z,82.75
2019-05-01T21:02:07.715Z,82.73
2019-05-01T21:04:45.813Z,82.93
2019-05-01T21:07:29.512Z,83.06
2019-05-01T21:09:59.397Z,83.11
2019-05-01T21:12:28.756Z,84.11
2019-05-01T21:14:57.731Z,83.64
2019-05-01T21:17:26.639Z,83.81
2019-05-01T21:19:55.493Z,83.69
2019-05-01T21:22:26.485Z,84.10
2019-05-01T21:24:57.386Z,84.34
2019-05-01T21:27:26.384Z,83.88
2019-05-01T21:29:55.215Z,84.58
2019-05-01T21:32:27.447Z,84.53
2019-05-01T21:34:56.062Z,85.00
2019-05-01T21:37:25.239Z,85.38
2019-05-01T21:39:54.638Z,85.88
2019-05-01T21:42:25.583Z,86.06
2019-05-01T21:44:54.646Z,86.17
2019-05-01T21:47:23.865Z,86.15
2019-05-01T21:49:53.057Z,86.73
2019-05-01T21:52:26.656Z,86.30
2019-05-01T21:54:55.355Z,86.51
2019-05-01T21:57:24.577Z,86.40
2019-05-01T21:59:55.431Z,86.02
2019-05-01T22:02:26.279Z,86.53
2019-05-01T22:04:55.184Z,86.47
2019-05-01T22:07:27.777Z,86.88
2019-05-01T22:09:54.747Z,87.31
2019-05-01T22:12:23.751Z,87.10
2019-05-01T22:14:56.337Z,87.13
2019-05-01T22:17:39.811Z,87.67
2019-05-01T22:20:10.725Z,87.27
2019-05-01T22:22:48.039Z,87.61
2019-05-01T22:25:23.351Z,87.97
2019-05-01T22:28:20.533Z,87.93
2019-05-01T22:31:21.828Z,87.75
2019-05-01T22:33:49.311Z,88.20
2019-05-01T22:36:18.300Z,87.79
2019-05-01T22:38:47.375Z,87.82
2019-05-01T22:41:16.167Z,87.98
2019-05-01T22:43:45.072Z,88.39
2019-05-01T22:46:20.287Z,88.64
2019-05-01T22:48:49.199Z,88.26
2019-05-01T22:51:22.484Z,88.52
2019-05-01T22:53:54.692Z,88.20
2019-05-01T22:56:25.102Z,88.36
2019-05-01T22:58:54.188Z,88.43
2019-05-01T23:01:24.336Z,89.12
2019-05-01T23:03:55.388Z,89.49
2019-05-01T23:06:24.610Z,89.20
2019-05-01T23:08:53.687Z,89.46
2019-05-01T23:11:24.180Z,89.34
2019-05-01T23:13:53.077Z,89.58
2019-05-01T23:16:28.782Z,89.76
2019-05-01T23:18:54.775Z,89.63
2019-05-01T23:21:23.851Z,89.50
2019-05-01T23:23:56.854Z,89.64
2019-05-01T23:26:23.146Z,89.90
2019-05-01T23:28:51.924Z,89.71
2019-05-01T23:31:20.893Z,89.81
2019-05-01T23:33:50.563Z,90.06
2019-05-01T23:36:23.571Z,89.61
2019-05-01T23:38:50.976Z,89.85
2019-05-01T23:41:24.787Z,89.97
2019-05-01T23:43:50.402Z,90.04
2019-05-01T23:46:19.240Z,90.44
2019-05-01T23:48:48.064Z,89.91
2019-05-01T23:51:17.240Z,90.30
2019-05-01T23:53:48.217Z,90.38
2019-05-01T23:56:16.599Z,90.34
2019-05-01T23:58:45.488Z,90.24
